createdAt,value
2019-02-11T00:01:53.445Z,14.20
2019-02-11T00:04:25.479Z,14.45
2019-02-11T00:06:57.275Z,12.47
2019-02-11T00:09:29.174Z,11.97
2019-02-11T00:12:01.010Z,12.93
2019-02-11T00:14:34.953Z,15.00
2019-02-11T00:17:12.206Z,15.43
2019-02-11T00:19:49.280Z,17.00
2019-02-11T00:22:21.148Z,15.47
2019-02-11T00:24:52.969Z,14.20
2019-02-11T00:27:24.772Z,13.93
2019-02-11T00:29:56.600Z,12.70
2019-02-11T00:32:28.392Z,12.40
2019-02-11T00:35:00.260Z,12.80
2019-02-11T00:37:32.097Z,12.57
2019-02-11T00:40:04.404Z,12.20
2019-02-11T00:42:36.231Z,13.00
2019-02-11T00:45:08.616Z,14.33
2019-02-11T00:47:40.438Z,13.33
2019-02-11T00:50:12.372Z,12.60
2019-02-11T00:52:44.212Z,11.60
2019-02-11T00:55:16.101Z,10.63
2019-02-11T00:57:47.941Z,10.83
2019-02-11T01:00:22.542Z,10.57
2019-02-11T01:02:54.377Z,10.80
2019-02-11T01:05:26.357Z,13.63
2019-02-11T01:07:58.317Z,14.37
2019-02-11T01:10:30.230Z,14.00
2019-02-11T01:13:03.167Z,15.23
2019-02-11T01:15:35.084Z,11.43
2019-02-11T01:18:06.947Z,12.57
2019-02-11T01:20:38.782Z,12.00
2019-02-11T01:23:10.664Z,11.77
2019-02-11T01:25:43.781Z,12.33
2019-02-11T01:28:15.784Z,12.33
2019-02-11T01:30:47.576Z,12.30
2019-02-11T01:33:19.480Z,12.17
2019-02-11T01:35:51.317Z,11.47
2019-02-11T01:38:23.181Z,11.30
2019-02-11T01:40:55.011Z,12.53
2019-02-11T01:43:26.874Z,12.33
2019-02-11T01:45:58.715Z,13.20
2019-02-11T01:48:31.117Z,13.63
2019-02-11T01:51:02.966Z,13.10
2019-02-11T01:53:34.861Z,12.63
2019-02-11T01:56:07.099Z,10.70
2019-02-11T01:58:41.734Z,11.77
2019-02-11T02:01:13.591Z,11.37
2019-02-11T02:03:45.745Z,12.87
2019-02-11T02:06:17.596Z,12.13
2019-02-11T02:08:49.406Z,11.43
2019-02-11T02:11:22.863Z,11.73
2019-02-11T02:13:54.702Z,11.97
2019-02-11T02:16:26.893Z,11.97
2019-02-11T02:18:58.719Z,12.57
2019-02-11T02:21:31.570Z,11.77
2019-02-11T02:24:03.411Z,11.10
2019-02-11T02:26:35.641Z,11.50
2019-02-11T02:29:09.772Z,11.43
2019-02-11T02:31:41.547Z,9.73
2019-02-11T02:34:13.430Z,10.53
2019-02-11T02:36:45.262Z,9.33
2019-02-11T02:39:17.134Z,9.40
2019-02-11T02:41:48.921Z,10.23
2019-02-11T02:44:20.783Z,10.90
2019-02-11T02:46:52.889Z,11.10
2019-02-11T02:49:24.734Z,11.53
2019-02-11T02:51:56.564Z,11.83
2019-02-11T02:54:28.823Z,11.87
2019-02-11T02:57:04.491Z,10.93
2019-02-11T02:59:36.327Z,10.53
2019-02-11T03:02:08.172Z,9.60
2019-02-11T03:04:39.986Z,9.63
2019-02-11T03:07:11.871Z,10.53
2019-02-11T03:09:44.882Z,10.73
2019-02-11T03:12:16.661Z,10.93
2019-02-11T03:14:48.496Z,11.03
2019-02-11T03:17:20.391Z,10.57
2019-02-11T03:19:52.220Z,9.33
2019-02-11T03:22:24.024Z,8.60
2019-02-11T03:24:55.856Z,8.33
2019-02-11T03:27:27.627Z,8.93
2019-02-11T03:29:59.455Z,9.60
2019-02-11T03:32:31.251Z,8.60
2019-02-11T03:35:04.270Z,10.30
2019-02-11T03:37:36.122Z,9.30
2019-02-11T03:40:08.233Z,9.73
2019-02-11T03:42:40.090Z,9.10
2019-02-11T03:45:12.280Z,9.53
2019-02-11T03:47:45.259Z,10.07
2019-02-11T03:50:17.176Z,9.70
2019-02-11T03:52:49.065Z,10.73
2019-02-11T03:55:20.972Z,9.40
2019-02-11T03:57:53.113Z,9.17
2019-02-11T04:00:24.935Z,9.57
2019-02-11T04:02:56.879Z,9.23
2019-02-11T04:05:28.809Z,8.50
2019-02-11T04:08:00.650Z,9.70
2019-02-11T04:10:32.627Z,9.57
2019-02-11T04:13:04.449Z,9.63
2019-02-11T04:15:38.022Z,9.90
2019-02-11T04:18:09.879Z,10.77
2019-02-11T04:20:41.815Z,10.27
2019-02-11T04:23:13.599Z,9.67
2019-02-11T04:25:46.614Z,9.73
2019-02-11T04:28:18.477Z,10.57
2019-02-11T04:30:50.312Z,9.90
2019-02-11T04:33:22.176Z,10.10
2019-02-11T04:35:54.089Z,9.67
2019-02-11T04:38:25.899Z,10.00
2019-02-11T04:40:57.738Z,9.33
2019-02-11T04:43:32.927Z,9.43
2019-02-11T04:46:05.118Z,8.67
2019-02-11T04:48:37.324Z,8.37
2019-02-11T04:51:09.150Z,9.40
2019-02-11T04:53:40.998Z,8.60
2019-02-11T04:56:12.822Z,8.97
2019-02-11T04:58:44.610Z,11.23
2019-02-11T05:01:16.479Z,10.40
2019-02-11T05:03:48.697Z,10.40
2019-02-11T05:06:20.635Z,10.07
2019-02-11T05:08:52.432Z,10.10
2019-02-11T05:11:25.245Z,9.33
2019-02-11T05:13:57.044Z,9.33
2019-02-11T05:16:28.861Z,8.80
2019-02-11T05:19:00.677Z,8.03
2019-02-11T05:21:36.113Z,8.93
2019-02-11T05:24:08.284Z,9.63
2019-02-11T05:26:40.086Z,9.07
2019-02-11T05:29:11.915Z,9.40
2019-02-11T05:31:43.745Z,9.60
2019-02-11T05:34:15.613Z,9.50
2019-02-11T05:36:47.435Z,9.80
2019-02-11T05:39:19.394Z,8.43
2019-02-11T05:41:51.232Z,9.33
2019-02-11T05:44:23.109Z,9.33
2019-02-11T05:46:55.825Z,9.43
2019-02-11T05:49:27.767Z,9.53
2019-02-11T05:51:59.583Z,9.10
2019-02-11T05:54:31.581Z,10.23
2019-02-11T05:57:04.242Z,8.87
2019-02-11T05:59:36.082Z,9.00
2019-02-11T06:02:08.038Z,9.97
2019-02-11T06:04:41.082Z,8.80
2019-02-11T06:07:13.305Z,9.57
2019-02-11T06:09:45.111Z,10.13
2019-02-11T06:12:16.942Z,8.60
2019-02-11T06:14:48.775Z,8.33
2019-02-11T06:17:20.548Z,8.97
2019-02-11T06:19:52.357Z,8.50
2019-02-11T06:22:24.270Z,8.10
2019-02-11T06:24:56.106Z,8.87
2019-02-11T06:27:29.673Z,8.63
2019-02-11T06:30:02.655Z,8.03
2019-02-11T06:32:34.464Z,9.00
2019-02-11T06:35:07.343Z,8.17
2019-02-11T06:37:39.559Z,8.80
2019-02-11T06:40:11.409Z,8.30
2019-02-11T06:42:43.220Z,8.03
2019-02-11T06:45:17.460Z,8.57
2019-02-11T06:47:50.030Z,8.83
2019-02-11T06:50:21.848Z,8.40
2019-02-11T06:52:53.699Z,9.20
2019-02-11T06:55:25.554Z,8.23
2019-02-11T06:57:57.437Z,9.93
2019-02-11T07:00:29.232Z,9.50
2019-02-11T07:03:02.965Z,8.47
2019-02-11T07:05:34.839Z,10.17
2019-02-11T07:08:07.984Z,10.90
2019-02-11T07:10:39.964Z,11.87
2019-02-11T07:13:11.827Z,10.63
2019-02-11T07:15:43.712Z,10.13
2019-02-11T07:18:15.580Z,9.70
2019-02-11T07:20:47.947Z,10.37
2019-02-11T07:23:19.915Z,11.07
2019-02-11T07:25:51.827Z,10.37
2019-02-11T07:28:23.689Z,10.13
2019-02-11T07:30:55.640Z,9.87
2019-02-11T07:33:27.576Z,9.57
2019-02-11T07:35:59.414Z,8.93
2019-02-11T07:38:31.442Z,8.70
2019-02-11T07:41:05.981Z,10.67
2019-02-11T07:43:59.881Z,9.63
2019-02-11T07:47:16.639Z,9.77
2019-02-11T07:49:48.496Z,9.33
2019-02-11T07:52:26.668Z,9.33
2019-02-11T07:54:53.835Z,9.33
2019-02-11T07:57:25.664Z,9.67
2019-02-11T07:59:58.068Z,21.27
2019-02-11T08:02:29.995Z,21.83
2019-02-11T08:05:04.585Z,12.43
2019-02-11T08:07:36.424Z,10.27
2019-02-11T08:10:08.339Z,9.63
2019-02-11T08:12:40.232Z,8.47
2019-02-11T08:15:12.466Z,9.20
2019-02-11T08:17:46.920Z,8.80
2019-02-11T08:20:18.950Z,9.60
2019-02-11T08:22:50.783Z,9.73
2019-02-11T08:25:24.906Z,8.30
2019-02-11T08:27:56.737Z,8.87
2019-02-11T08:30:47.765Z,8.87
2019-02-11T08:33:19.684Z,7.47
2019-02-11T08:35:51.518Z,8.90
2019-02-11T08:38:26.438Z,10.03
2019-02-11T08:40:58.765Z,8.40
2019-02-11T08:43:30.563Z,8.63
2019-02-11T08:46:05.561Z,8.77
2019-02-11T08:48:37.730Z,9.47
2019-02-11T08:51:09.925Z,8.47
2019-02-11T08:53:41.838Z,8.30
2019-02-11T08:56:13.620Z,8.73
2019-02-11T08:58:45.576Z,8.47
2019-02-11T09:01:17.398Z,8.70
2019-02-11T09:03:49.312Z,8.77
2019-02-11T09:06:21.589Z,8.30
2019-02-11T09:08:53.533Z,8.70
2019-02-11T09:11:27.020Z,7.80
2019-02-11T09:13:59.518Z,7.00
2019-02-11T09:16:31.416Z,7.00
2019-02-11T09:19:03.638Z,7.53
2019-02-11T09:21:35.593Z,8.80
2019-02-11T09:24:07.405Z,9.17
2019-02-11T09:26:39.317Z,7.63
2019-02-11T09:29:11.190Z,7.10
2019-02-11T09:31:43.035Z,6.87
2019-02-11T09:34:14.856Z,6.67
2019-02-11T09:36:46.698Z,6.03
2019-02-11T09:39:18.629Z,5.70
2019-02-11T09:41:51.733Z,5.80
2019-02-11T09:44:29.607Z,5.83
2019-02-11T09:46:58.746Z,6.17
2019-02-11T09:49:31.015Z,6.40
2019-02-11T09:52:02.979Z,5.58
2019-02-11T09:54:34.817Z,6.00
2019-02-11T09:57:08.228Z,5.83
2019-02-11T09:59:40.060Z,6.12
2019-02-11T10:02:11.906Z,6.17
2019-02-11T10:04:43.730Z,5.62
2019-02-11T10:07:17.915Z,5.72
2019-02-11T10:09:49.765Z,5.92
2019-02-11T10:12:21.752Z,6.10
2019-02-11T10:14:53.608Z,6.87
2019-02-11T10:17:29.875Z,5.55
2019-02-11T10:20:03.056Z,6.08
2019-02-11T10:22:35.082Z,6.83
2019-02-11T10:25:09.816Z,6.55
2019-02-11T10:27:41.619Z,6.40
2019-02-11T10:30:14.864Z,5.72
2019-02-11T10:32:46.804Z,4.30
2019-02-11T10:35:18.761Z,4.15
2019-02-11T10:37:50.591Z,5.53
2019-02-11T10:40:22.558Z,5.90
2019-02-11T10:42:54.382Z,5.60
2019-02-11T10:45:26.379Z,5.97
2019-02-11T10:47:58.667Z,4.55
2019-02-11T10:50:31.139Z,4.20
2019-02-11T10:53:02.933Z,4.03
2019-02-11T10:55:34.793Z,3.80
2019-02-11T10:58:06.596Z,4.30
2019-02-11T11:00:38.818Z,7.08
2019-02-11T11:03:10.644Z,4.90
2019-02-11T11:05:43.315Z,4.00
2019-02-11T11:08:15.256Z,3.40
2019-02-11T11:10:47.145Z,3.10
2019-02-11T11:13:18.954Z,3.05
2019-02-11T11:15:50.767Z,4.05
2019-02-11T11:18:23.309Z,7.05
2019-02-11T11:20:55.101Z,4.50
2019-02-11T11:23:28.135Z,4.08
2019-02-11T11:26:00.031Z,3.75
2019-02-11T11:28:32.213Z,3.65
2019-02-11T11:31:04.395Z,3.33
2019-02-11T11:33:36.536Z,3.58
2019-02-11T11:36:09.167Z,3.40
2019-02-11T11:38:43.781Z,3.30
2019-02-11T11:41:15.645Z,3.72
2019-02-11T11:43:47.444Z,3.50
2019-02-11T11:46:19.281Z,3.67
2019-02-11T11:48:51.160Z,3.20
2019-02-11T11:51:23.356Z,3.70
2019-02-11T11:53:55.325Z,3.75
2019-02-11T11:56:27.147Z,3.33
2019-02-11T11:58:59.809Z,3.92
2019-02-11T12:01:31.666Z,3.47
2019-02-11T12:04:06.358Z,4.15
2019-02-11T12:06:37.578Z,3.52
2019-02-11T12:09:09.630Z,3.70
2019-02-11T12:11:43.376Z,3.25
2019-02-11T12:14:15.986Z,3.60
2019-02-11T12:16:56.790Z,3.67
2019-02-11T12:19:21.323Z,4.20
2019-02-11T12:21:53.443Z,3.17
2019-02-11T12:24:25.342Z,3.37
2019-02-11T12:26:57.910Z,3.40
2019-02-11T12:29:29.737Z,3.60
2019-02-11T12:32:03.675Z,4.17
2019-02-11T12:34:36.050Z,3.80
2019-02-11T12:37:09.503Z,3.62
2019-02-11T12:39:41.521Z,3.65
2019-02-11T12:42:13.941Z,3.65
2019-02-11T12:44:45.978Z,3.27
2019-02-11T12:47:17.794Z,3.30
2019-02-11T12:49:49.580Z,2.87
2019-02-11T12:52:21.613Z,3.37
2019-02-11T12:54:53.430Z,3.20
2019-02-11T12:57:25.907Z,3.33
2019-02-11T12:59:57.739Z,2.80
2019-02-11T13:02:29.580Z,3.45
2019-02-11T13:05:01.522Z,3.83
2019-02-11T13:07:33.355Z,3.92
2019-02-11T13:10:07.502Z,3.00
2019-02-11T13:12:39.608Z,3.45
2019-02-11T13:15:11.795Z,3.75
2019-02-11T13:17:43.882Z,4.40
2019-02-11T13:20:15.742Z,4.03
2019-02-11T13:22:47.976Z,4.40
2019-02-11T13:25:19.861Z,4.40
2019-02-11T13:27:51.679Z,4.28
2019-02-11T13:30:28.735Z,4.90
2019-02-11T13:33:00.627Z,5.00
2019-02-11T13:35:34.317Z,4.78
2019-02-11T13:38:06.106Z,5.00
2019-02-11T13:40:37.946Z,4.30
2019-02-11T13:43:09.986Z,4.37
2019-02-11T13:45:41.809Z,3.70
2019-02-11T13:48:14.779Z,3.75
2019-02-11T13:50:46.769Z,3.70
2019-02-11T13:53:18.889Z,3.05
2019-02-11T13:55:51.541Z,3.50
2019-02-11T13:58:23.395Z,3.62
2019-02-11T14:00:56.163Z,3.05
2019-02-11T14:03:28.261Z,3.62
2019-02-11T14:06:00.180Z,3.25
2019-02-11T14:08:32.361Z,3.37
2019-02-11T14:11:04.552Z,3.22
2019-02-11T14:13:36.399Z,3.42
2019-02-11T14:16:08.329Z,3.45
2019-02-11T14:18:40.179Z,3.35
2019-02-11T14:21:11.964Z,3.67
2019-02-11T14:23:43.809Z,3.77
2019-02-11T14:26:15.894Z,3.27
2019-02-11T14:28:49.573Z,3.42
2019-02-11T14:31:22.047Z,3.80
2019-02-11T14:33:54.685Z,3.40
2019-02-11T14:36:26.724Z,3.72
2019-02-11T14:38:58.678Z,3.50
2019-02-11T14:41:31.394Z,3.80
2019-02-11T14:44:03.281Z,3.67
2019-02-11T14:46:35.455Z,3.40
2019-02-11T14:49:08.828Z,3.90
2019-02-11T14:51:40.783Z,4.08
2019-02-11T14:54:14.167Z,3.70
2019-02-11T14:56:47.978Z,3.67
2019-02-11T14:59:19.800Z,4.08
2019-02-11T15:01:51.644Z,4.10
2019-02-11T15:04:23.507Z,3.85
2019-02-11T15:06:55.291Z,4.72
2019-02-11T15:09:30.308Z,4.72
2019-02-11T15:12:04.947Z,4.42
2019-02-11T15:14:36.785Z,3.80
2019-02-11T15:17:08.749Z,3.80
2019-02-11T15:19:41.238Z,4.65
2019-02-11T15:22:13.150Z,5.08
2019-02-11T15:24:45.000Z,4.70
2019-02-11T15:27:17.486Z,4.53
2019-02-11T15:29:49.504Z,4.33
2019-02-11T15:32:21.509Z,4.65
2019-02-11T15:34:54.030Z,4.28
2019-02-11T15:37:25.944Z,4.40
2019-02-11T15:39:57.765Z,4.25
2019-02-11T15:42:29.573Z,4.58
2019-02-11T15:45:01.472Z,4.03
2019-02-11T15:47:36.153Z,3.98
2019-02-11T15:50:09.680Z,4.35
2019-02-11T15:52:41.766Z,3.80
2019-02-11T15:55:16.758Z,4.08
2019-02-11T15:57:51.531Z,4.20
2019-02-11T16:00:23.805Z,4.45
2019-02-11T16:02:55.658Z,4.08
2019-02-11T16:05:27.515Z,4.67
2019-02-11T16:08:00.857Z,3.95
2019-02-11T16:10:32.930Z,3.35
2019-02-11T16:13:04.743Z,3.80
2019-02-11T16:15:37.266Z,4.35
2019-02-11T16:18:09.237Z,3.70
2019-02-11T16:20:41.034Z,3.98
2019-02-11T16:23:12.852Z,4.60
2019-02-11T16:25:44.637Z,5.08
2019-02-11T16:28:17.162Z,3.75
2019-02-11T16:30:49.129Z,4.10
2019-02-11T16:33:20.948Z,4.35
2019-02-11T16:35:53.220Z,4.40
2019-02-11T16:38:26.356Z,4.70
2019-02-11T16:40:58.243Z,4.05
2019-02-11T16:43:30.063Z,5.10
2019-02-11T16:46:01.968Z,3.83
2019-02-11T16:48:34.264Z,4.28
2019-02-11T16:51:06.053Z,5.47
2019-02-11T16:53:39.610Z,4.58
2019-02-11T16:56:11.464Z,4.75
2019-02-11T16:58:43.419Z,4.70
2019-02-11T17:01:15.292Z,4.62
2019-02-11T17:03:47.166Z,11.28
2019-02-11T17:06:19.034Z,7.70
2019-02-11T17:08:51.139Z,4.78
2019-02-11T17:11:23.399Z,4.75
2019-02-11T17:13:55.229Z,6.12
2019-02-11T17:16:29.733Z,10.72
2019-02-11T17:19:09.187Z,7.12
2019-02-11T17:21:37.500Z,7.62
2019-02-11T17:24:09.343Z,58.90
2019-02-11T17:26:41.548Z,38.75
2019-02-11T17:29:13.349Z,34.30
2019-02-11T17:31:45.209Z,41.70
2019-02-11T17:34:17.016Z,31.33
2019-02-11T17:36:49.947Z,43.98
2019-02-11T17:39:21.779Z,55.88
2019-02-11T17:41:53.629Z,24.35
2019-02-11T17:44:25.897Z,16.32
2019-02-11T17:46:57.804Z,12.68
2019-02-11T17:49:29.609Z,15.98
2019-02-11T17:52:03.772Z,18.45
2019-02-11T17:54:36.262Z,11.95
2019-02-11T17:57:09.158Z,14.00
2019-02-11T17:59:41.770Z,16.35
2019-02-11T18:02:15.432Z,37.90
2019-02-11T18:04:52.592Z,25.60
2019-02-11T18:07:26.989Z,16.37
2019-02-11T18:10:00.266Z,21.27
2019-02-11T18:12:34.407Z,16.50
2019-02-11T18:15:12.106Z,11.55
2019-02-11T18:17:45.742Z,10.55
2019-02-11T18:20:19.248Z,10.40
2019-02-11T18:22:51.243Z,11.55
2019-02-11T18:25:23.885Z,12.78
2019-02-11T18:27:55.895Z,14.03
2019-02-11T18:30:27.784Z,17.50
2019-02-11T18:32:59.660Z,16.50
2019-02-11T18:35:31.455Z,17.20
2019-02-11T18:38:03.573Z,17.32
2019-02-11T18:40:35.781Z,16.15
2019-02-11T18:43:07.753Z,17.92
2019-02-11T18:45:40.001Z,19.15
2019-02-11T18:48:14.151Z,22.25
2019-02-11T18:50:47.901Z,23.67
2019-02-11T18:53:23.957Z,22.87
2019-02-11T18:55:55.819Z,23.20
2019-02-11T18:58:28.038Z,21.73
2019-02-11T19:01:00.313Z,22.73
2019-02-11T19:03:32.114Z,22.42
2019-02-11T19:06:05.078Z,33.75
2019-02-11T19:08:39.361Z,34.60
2019-02-11T19:11:11.203Z,30.75
2019-02-11T19:13:43.088Z,26.93
2019-02-11T19:16:14.950Z,26.87
2019-02-11T19:18:46.775Z,26.50
2019-02-11T19:21:19.714Z,28.32
2019-02-11T19:23:51.629Z,32.98
2019-02-11T19:26:23.507Z,31.33
2019-02-11T19:28:55.365Z,27.62
2019-02-11T19:31:27.679Z,28.00
2019-02-11T19:34:00.150Z,28.87
2019-02-11T19:36:34.663Z,30.52
2019-02-11T19:39:06.958Z,28.35
2019-02-11T19:41:38.859Z,27.10
2019-02-11T19:44:10.745Z,28.50
2019-02-11T19:46:42.772Z,29.70
2019-02-11T19:49:14.729Z,31.75
2019-02-11T19:51:46.600Z,32.63
2019-02-11T19:54:18.488Z,36.03
2019-02-11T19:56:50.759Z,35.73
2019-02-11T19:59:22.704Z,34.83
2019-02-11T20:01:54.567Z,38.45
2019-02-11T20:04:26.449Z,43.50
2019-02-11T20:06:58.722Z,47.30
2019-02-11T20:09:32.893Z,229.55
2019-02-11T20:12:04.145Z,206.00
2019-02-11T20:14:35.987Z,54.48
2019-02-11T20:17:07.766Z,86.55
2019-02-11T20:19:39.971Z,189.32
2019-02-11T20:22:11.773Z,84.58
2019-02-11T20:24:43.734Z,105.83
2019-02-11T20:27:15.553Z,48.68
2019-02-11T20:29:48.484Z,45.25
2019-02-11T20:32:20.903Z,57.10
2019-02-11T20:34:52.842Z,52.67
2019-02-11T20:37:24.626Z,45.50
2019-02-11T20:40:03.193Z,48.58
2019-02-11T20:42:30.916Z,54.38
2019-02-11T20:45:02.782Z,61.48
2019-02-11T20:47:35.726Z,47.05
2019-02-11T20:50:09.788Z,45.73
2019-02-11T20:52:42.509Z,40.25
2019-02-11T20:55:14.479Z,40.00
2019-02-11T20:57:47.517Z,43.98
2019-02-11T21:00:20.966Z,46.33
2019-02-11T21:02:56.461Z,47.67
2019-02-11T21:05:28.724Z,47.65
2019-02-11T21:08:00.739Z,49.03
2019-02-11T21:10:34.767Z,46.80
2019-02-11T21:13:06.678Z,45.17
2019-02-11T21:15:38.585Z,44.23
2019-02-11T21:18:10.804Z,42.30
2019-02-11T21:20:43.585Z,38.65
2019-02-11T21:23:15.487Z,40.98
2019-02-11T21:25:47.762Z,39.88
2019-02-11T21:28:19.981Z,41.10
2019-02-11T21:30:51.830Z,40.88
2019-02-11T21:33:23.779Z,45.30
2019-02-11T21:35:55.743Z,44.88
2019-02-11T21:38:27.579Z,48.17
2019-02-11T21:40:59.473Z,50.70
2019-02-11T21:43:31.364Z,56.10
2019-02-11T21:46:05.705Z,75.50
2019-02-11T21:48:37.584Z,56.48
2019-02-11T21:51:09.583Z,55.60
2019-02-11T21:53:41.435Z,54.93
2019-02-11T21:56:13.295Z,55.20
2019-02-11T21:58:45.300Z,51.05
2019-02-11T22:01:17.543Z,47.43
2019-02-11T22:03:49.399Z,45.73
2019-02-11T22:06:21.991Z,37.10
2019-02-11T22:08:53.921Z,38.80
2019-02-11T22:11:26.732Z,38.98
2019-02-11T22:13:58.946Z,38.65
2019-02-11T22:16:30.845Z,40.50
2019-02-11T22:19:02.718Z,36.73
2019-02-11T22:21:34.921Z,38.63
2019-02-11T22:24:06.694Z,35.25
2019-02-11T22:26:40.036Z,34.38
2019-02-11T22:29:11.840Z,33.42
2019-02-11T22:31:43.715Z,32.65
2019-02-11T22:34:15.507Z,32.03
2019-02-11T22:36:47.689Z,33.43
2019-02-11T22:39:19.581Z,32.83
2019-02-11T22:41:51.469Z,35.85
2019-02-11T22:44:23.447Z,34.20
2019-02-11T22:46:55.733Z,39.03
2019-02-11T22:49:27.581Z,39.97
2019-02-11T22:51:59.395Z,38.33
2019-02-11T22:54:31.657Z,40.08
2019-02-11T22:57:03.464Z,38.87
2019-02-11T22:59:35.431Z,38.10
2019-02-11T23:02:07.636Z,36.07
2019-02-11T23:04:39.482Z,39.67
2019-02-11T23:07:11.322Z,38.35
2019-02-11T23:09:44.109Z,39.53
2019-02-11T23:12:17.803Z,45.10
2019-02-11T23:14:49.621Z,42.03
2019-02-11T23:17:21.457Z,41.90
2019-02-11T23:19:53.299Z,39.42
2019-02-11T23:22:25.134Z,39.00
2019-02-11T23:24:56.907Z,39.23
2019-02-11T23:27:29.192Z,38.43
2019-02-11T23:30:02.002Z,38.35
2019-02-11T23:32:36.325Z,35.87
2019-02-11T23:35:08.412Z,43.80
2019-02-11T23:37:40.309Z,33.37
2019-02-11T23:40:13.809Z,31.75
2019-02-11T23:42:46.231Z,34.98
2019-02-11T23:45:18.618Z,37.97
2019-02-11T23:47:50.448Z,35.47
2019-02-11T23:50:22.227Z,35.92
2019-02-11T23:52:54.136Z,33.75
2019-02-11T23:55:25.991Z,34.30
2019-02-11T23:57:57.796Z,31.23
